createdAt,value
2022-09-05T00:02:49.034Z,88.77
2022-09-05T00:06:01.723Z,88.14
2022-09-05T00:08:57.082Z,88.20
2022-09-05T00:11:50.062Z,88.22
2022-09-05T00:15:14.911Z,88.42
2022-09-05T00:22:48.368Z,88.42
2022-09-05T00:24:37.053Z,88.58
2022-09-05T00:25:30.977Z,88.46
2022-09-05T00:28:26.287Z,89.55
2022-09-05T00:31:53.870Z,87.81
2022-09-05T00:34:59.812Z,87.01
2022-09-05T00:37:48.963Z,86.91
2022-09-05T00:40:41.135Z,86.49
2022-09-05T00:43:30.909Z,85.98
2022-09-05T00:46:23.518Z,85.44
2022-09-05T00:49:18.697Z,85.46
2022-09-05T00:52:16.339Z,84.84
2022-09-05T00:55:18.792Z,84.68
2022-09-05T00:58:20.197Z,84.45
2022-09-05T01:01:21.695Z,84.66
2022-09-05T01:04:26.036Z,85.17
2022-09-05T01:07:28.704Z,84.85
2022-09-05T01:10:23.898Z,85.49
2022-09-05T01:13:23.982Z,86.07
2022-09-05T01:16:22.821Z,85.93
2022-09-05T01:19:22.730Z,86.34
2022-09-05T01:22:37.431Z,89.42
2022-09-05T01:25:39.530Z,87.38
2022-09-05T01:29:17.757Z,88.60
2022-09-05T01:32:22.486Z,90.66
2022-09-05T01:36:04.022Z,90.97
2022-09-05T01:40:06.732Z,91.91
2022-09-05T01:42:20.216Z,91.22
2022-09-05T01:45:17.321Z,92.92
2022-09-05T01:48:07.050Z,93.32
2022-09-05T01:51:04.817Z,93.19
2022-09-05T01:53:59.443Z,92.37
2022-09-05T01:56:54.930Z,91.29
2022-09-05T01:59:49.542Z,91.19
2022-09-05T02:02:50.216Z,91.72
2022-09-05T02:06:06.715Z,91.13
2022-09-05T02:09:11.170Z,90.82
2022-09-05T02:11:59.882Z,91.29
2022-09-05T02:14:55.255Z,91.74
2022-09-05T02:17:52.698Z,92.19
2022-09-05T02:20:48.522Z,92.40
2022-09-05T02:23:42.578Z,92.90
2022-09-05T02:26:35.883Z,93.93
2022-09-05T02:29:29.961Z,94.37
2022-09-05T02:32:23.197Z,94.61
2022-09-05T02:35:22.017Z,94.96
2022-09-05T02:42:26.403Z,95.94
2022-09-05T02:45:16.670Z,96.59
2022-09-05T02:45:20.600Z,97.96
2022-09-05T02:48:14.980Z,99.32
2022-09-05T02:57:27.664Z,98.34
2022-09-05T02:57:37.219Z,97.04
2022-09-05T02:58:06.356Z,98.77
2022-09-05T03:01:03.506Z,100.00
2022-09-05T03:03:56.309Z,100.00
2022-09-05T03:06:57.292Z,100.00
2022-09-05T03:10:05.017Z,100.00
2022-09-05T03:13:25.356Z,100.00
2022-09-05T03:17:10.535Z,100.00
2022-09-05T03:20:41.739Z,100.00
2022-09-05T03:23:48.911Z,100.00
2022-09-05T03:27:07.086Z,100.00
2022-09-05T03:30:08.522Z,100.00
2022-09-05T03:33:36.985Z,100.00
2022-09-05T03:37:01.301Z,100.00
2022-09-05T03:40:15.822Z,100.00
2022-09-05T03:43:36.190Z,100.00
2022-09-05T03:46:41.026Z,100.00
2022-09-05T03:52:40.122Z,100.00
2022-09-05T03:57:14.834Z,100.00
2022-09-05T03:57:15.963Z,100.00
2022-09-05T04:00:08.996Z,100.00
2022-09-05T04:04:28.906Z,100.00
2022-09-05T04:08:16.352Z,100.00
2022-09-05T04:09:50.600Z,100.00
2022-09-05T04:12:50.460Z,100.00
2022-09-05T04:15:42.326Z,100.00
2022-09-05T04:18:35.351Z,100.00
2022-09-05T04:21:27.245Z,100.00
2022-09-05T04:24:23.266Z,100.00
2022-09-05T04:27:41.183Z,100.00
2022-09-05T04:30:41.319Z,100.00
2022-09-05T04:33:36.831Z,100.00
2022-09-05T04:36:28.297Z,100.00
2022-09-05T04:39:35.852Z,100.00
2022-09-05T04:42:26.041Z,100.00
2022-09-05T04:45:17.823Z,100.00
2022-09-05T04:48:20.368Z,100.00
2022-09-05T04:51:12.831Z,100.00
2022-09-05T04:54:19.458Z,100.00
2022-09-05T04:57:19.597Z,100.00
2022-09-05T05:06:03.838Z,100.00
2022-09-05T05:06:22.991Z,100.00
2022-09-05T05:06:44.998Z,100.00
2022-09-05T05:09:38.424Z,100.00
2022-09-05T05:17:57.194Z,94.24
2022-09-05T05:18:01.198Z,97.75
2022-09-05T05:19:18.655Z,93.20
2022-09-05T05:22:14.344Z,91.93
2022-09-05T05:25:02.904Z,90.54
2022-09-05T05:28:02.099Z,90.89
2022-09-05T05:31:12.583Z,91.14
2022-09-05T05:34:04.010Z,89.34
2022-09-05T05:37:18.308Z,88.89
2022-09-05T05:40:11.563Z,88.30
2022-09-05T05:43:17.089Z,88.00
2022-09-05T05:46:04.033Z,88.21
2022-09-05T05:49:05.051Z,87.46
2022-09-05T05:52:09.245Z,87.57
2022-09-05T05:55:42.241Z,85.62
2022-09-05T05:58:32.709Z,85.03
2022-09-05T06:01:50.361Z,83.71
2022-09-05T06:05:14.402Z,81.77
2022-09-05T06:09:58.851Z,81.65
2022-09-05T06:14:56.180Z,79.35
2022-09-05T06:15:27.879Z,79.98
2022-09-05T06:18:38.189Z,80.01
2022-09-05T06:22:10.132Z,80.33
2022-09-05T06:25:44.438Z,80.33
2022-09-05T06:28:59.450Z,79.99
2022-09-05T06:32:04.006Z,80.07
2022-09-05T06:35:32.677Z,79.56
2022-09-05T06:38:37.451Z,78.33
2022-09-05T06:41:38.335Z,78.14
2022-09-05T06:44:38.351Z,77.33
2022-09-05T06:47:34.357Z,79.38
2022-09-05T06:50:27.945Z,77.82
2022-09-05T06:53:53.440Z,78.82
2022-09-05T06:56:54.890Z,77.29
2022-09-05T07:00:22.480Z,76.91
2022-09-05T07:03:24.980Z,77.47
2022-09-05T07:06:19.785Z,75.52
2022-09-05T07:09:18.206Z,75.65
2022-09-05T07:12:17.991Z,73.28
2022-09-05T07:15:14.949Z,74.19
2022-09-05T07:18:13.622Z,74.99
2022-09-05T07:21:17.370Z,73.69
2022-09-05T07:24:11.317Z,73.32
2022-09-05T07:27:00.679Z,74.42
2022-09-05T07:30:00.753Z,76.05
2022-09-05T07:32:52.810Z,72.51
2022-09-05T07:35:41.760Z,70.84
2022-09-05T07:38:52.104Z,71.83
2022-09-05T07:41:39.686Z,71.50
2022-09-05T07:44:30.561Z,72.71
2022-09-05T07:47:23.693Z,73.31
2022-09-05T07:50:42.883Z,74.50
2022-09-05T07:57:00.668Z,69.67
2022-09-05T07:57:01.481Z,74.14
2022-09-05T07:59:53.603Z,71.35
2022-09-05T08:02:47.067Z,72.30
2022-09-05T08:05:41.570Z,69.68
2022-09-05T08:08:33.387Z,69.12
2022-09-05T08:11:26.033Z,69.42
2022-09-05T08:14:43.285Z,70.25
2022-09-05T08:17:30.231Z,70.50
2022-09-05T08:20:31.182Z,67.98
2022-09-05T08:23:40.195Z,70.57
2022-09-05T08:26:36.904Z,66.20
2022-09-05T08:29:32.367Z,64.72
2022-09-05T08:32:24.336Z,65.75
2022-09-05T08:35:18.374Z,64.52
2022-09-05T08:38:08.517Z,63.33
2022-09-05T08:41:06.446Z,65.81
2022-09-05T08:46:36.703Z,64.01
2022-09-05T08:47:19.526Z,63.85
2022-09-05T08:50:50.050Z,64.48
2022-09-05T08:53:54.147Z,63.27
2022-09-05T08:56:51.622Z,63.06
2022-09-05T09:00:18.387Z,62.48
2022-09-05T09:03:07.721Z,60.89
2022-09-05T09:06:22.314Z,59.40
2022-09-05T09:09:19.931Z,61.13
2022-09-05T09:12:16.119Z,61.82
2022-09-05T09:15:11.548Z,62.12
2022-09-05T09:17:59.838Z,61.31
2022-09-05T09:20:58.093Z,60.81
2022-09-05T09:23:50.340Z,61.99
2022-09-05T09:26:48.323Z,61.65
2022-09-05T09:29:39.874Z,60.68
2022-09-05T09:32:26.988Z,60.52
2022-09-05T09:35:21.502Z,60.50
2022-09-05T09:38:24.243Z,60.06
2022-09-05T09:41:52.828Z,57.62
2022-09-05T09:45:22.894Z,57.36
2022-09-05T09:48:40.650Z,58.01
2022-09-05T09:51:53.705Z,57.96
2022-09-05T09:55:31.312Z,58.80
2022-09-05T09:58:43.584Z,58.00
2022-09-05T10:01:38.496Z,58.01
2022-09-05T10:10:38.836Z,59.74
2022-09-05T10:10:52.715Z,58.45
2022-09-05T10:11:53.863Z,59.23
2022-09-05T10:15:31.536Z,55.76
2022-09-05T10:18:48.630Z,56.28
2022-09-05T10:25:28.743Z,54.04
2022-09-05T10:28:27.334Z,53.45
2022-09-05T10:33:27.083Z,55.46
2022-09-05T10:35:17.073Z,52.98
2022-09-05T10:37:42.413Z,53.28
2022-09-05T10:40:45.472Z,53.76
2022-09-05T10:43:51.222Z,51.01
2022-09-05T10:46:52.040Z,53.72
2022-09-05T10:49:44.576Z,51.54
2022-09-05T10:52:36.891Z,50.62
2022-09-05T10:55:26.717Z,51.81
2022-09-05T10:58:33.852Z,51.31
2022-09-05T11:02:29.618Z,49.86
2022-09-05T11:04:54.559Z,49.96
2022-09-05T11:07:48.859Z,51.39
2022-09-05T11:10:38.694Z,51.00
2022-09-05T11:13:46.021Z,52.22
2022-09-05T11:16:40.811Z,51.63
2022-09-05T11:19:36.546Z,50.61
2022-09-05T11:22:28.481Z,50.13
2022-09-05T11:25:28.216Z,52.75
2022-09-05T11:28:38.456Z,51.31
2022-09-05T11:33:47.163Z,50.59
2022-09-05T11:39:54.234Z,51.11
2022-09-05T11:40:08.377Z,50.40
2022-09-05T11:42:33.502Z,52.06
2022-09-05T11:45:49.766Z,48.57
2022-09-05T11:49:00.367Z,48.39
2022-09-05T11:52:22.058Z,49.02
2022-09-05T11:55:46.396Z,50.38
2022-09-05T11:59:07.249Z,49.30
2022-09-05T12:02:16.969Z,49.77
2022-09-05T12:05:49.739Z,49.92
2022-09-05T12:08:41.191Z,50.12
2022-09-05T12:11:46.534Z,52.50
2022-09-05T12:14:46.504Z,50.46
2022-09-05T12:17:58.421Z,48.32
2022-09-05T12:20:55.509Z,47.97
2022-09-05T12:24:12.695Z,50.75
2022-09-05T12:27:35.702Z,51.50
2022-09-05T12:30:15.692Z,48.23
2022-09-05T12:36:02.573Z,48.34
2022-09-05T12:40:56.096Z,51.22
2022-09-05T12:41:35.258Z,54.39
2022-09-05T12:44:06.065Z,51.15
2022-09-05T12:46:23.608Z,47.39
2022-09-05T12:49:18.030Z,47.85
2022-09-05T12:52:10.692Z,46.63
2022-09-05T12:55:01.989Z,46.59
2022-09-05T13:02:29.418Z,47.87
2022-09-05T13:03:08.114Z,49.59
2022-09-05T13:04:54.798Z,49.45
2022-09-05T13:07:48.280Z,46.53
2022-09-05T13:14:11.619Z,46.53
2022-09-05T13:14:48.233Z,46.45
2022-09-05T13:17:00.126Z,45.27
2022-09-05T13:19:52.188Z,48.22
2022-09-05T13:22:48.583Z,45.46
2022-09-05T13:25:37.330Z,45.76
2022-09-05T13:28:26.695Z,47.58
2022-09-05T13:37:56.190Z,44.93
2022-09-05T13:38:07.410Z,43.38
2022-09-05T13:38:15.189Z,45.32
2022-09-05T13:40:49.308Z,42.55
2022-09-05T13:43:38.471Z,43.15
2022-09-05T13:46:35.689Z,42.57
2022-09-05T13:49:29.667Z,42.81
2022-09-05T13:52:29.182Z,42.09
2022-09-05T13:55:24.611Z,41.21
2022-09-05T13:58:17.661Z,42.51
2022-09-05T14:01:21.892Z,41.78
2022-09-05T14:08:18.996Z,43.39
2022-09-05T14:11:44.824Z,44.50
2022-09-05T14:17:59.502Z,45.14
2022-09-05T14:21:13.215Z,44.43
2022-09-05T14:24:04.711Z,45.47
2022-09-05T14:26:56.567Z,45.74
2022-09-05T14:29:48.969Z,45.94
2022-09-05T14:37:36.273Z,45.33
2022-09-05T14:37:51.910Z,44.72
2022-09-05T14:40:00.242Z,45.15
2022-09-05T14:43:24.375Z,44.63
2022-09-05T14:46:34.232Z,46.03
2022-09-05T14:49:49.309Z,46.52
2022-09-05T14:57:23.068Z,44.41
2022-09-05T15:02:49.861Z,42.61
2022-09-05T15:02:52.713Z,43.23
2022-09-05T15:05:50.391Z,42.04
2022-09-05T15:11:53.589Z,42.59
2022-09-05T15:12:28.124Z,41.89
2022-09-05T15:15:00.569Z,42.72
2022-09-05T15:17:51.228Z,42.37
2022-09-05T15:20:39.447Z,41.79
2022-09-05T15:23:35.306Z,42.24
2022-09-05T15:26:25.856Z,43.04
2022-09-05T15:29:15.319Z,43.32
2022-09-05T15:32:14.524Z,43.14
2022-09-05T15:35:01.260Z,43.08
2022-09-05T15:37:50.257Z,45.23
2022-09-05T15:40:37.246Z,44.49
2022-09-05T15:43:25.472Z,45.02
2022-09-05T15:46:12.418Z,44.30
2022-09-05T15:49:00.136Z,45.52
2022-09-05T15:51:51.300Z,45.55
2022-09-05T15:54:40.589Z,45.02
2022-09-05T15:57:30.840Z,44.23
2022-09-05T16:00:51.503Z,43.71
2022-09-05T16:08:10.572Z,43.63
2022-09-05T16:10:28.967Z,43.72
2022-09-05T16:10:48.890Z,44.35
2022-09-05T16:13:14.103Z,44.22
2022-09-05T16:21:35.640Z,44.71
2022-09-05T16:23:24.446Z,45.23
2022-09-05T16:23:24.937Z,45.05
2022-09-05T16:25:42.072Z,45.12
2022-09-05T16:28:32.099Z,45.04
2022-09-05T16:31:26.871Z,45.78
2022-09-05T16:34:22.769Z,45.62
2022-09-05T16:37:15.098Z,45.85
2022-09-05T16:40:12.117Z,46.73
2022-09-05T16:43:05.518Z,47.40
2022-09-05T16:45:58.881Z,47.48
2022-09-05T16:48:55.062Z,47.03
2022-09-05T16:51:50.019Z,47.34
2022-09-05T16:54:42.802Z,47.76
2022-09-05T16:57:32.528Z,47.50
2022-09-05T17:00:19.263Z,48.08
2022-09-05T17:03:28.229Z,47.61
2022-09-05T17:06:26.394Z,48.70
2022-09-05T17:09:22.679Z,48.43
2022-09-05T17:12:18.044Z,48.67
2022-09-05T17:15:12.471Z,49.31
2022-09-05T17:18:22.202Z,49.99
2022-09-05T17:21:18.729Z,50.29
2022-09-05T17:29:16.925Z,49.89
2022-09-05T17:29:33.326Z,50.72
2022-09-05T17:34:49.749Z,51.36
2022-09-05T17:38:11.586Z,51.81
2022-09-05T17:41:19.745Z,52.82
2022-09-05T17:44:15.881Z,53.17
2022-09-05T17:47:15.239Z,53.82
2022-09-05T17:50:16.786Z,53.17
2022-09-05T17:53:26.647Z,53.32
2022-09-05T17:56:32.995Z,53.46
2022-09-05T17:59:28.910Z,54.78
2022-09-05T18:02:33.690Z,54.25
2022-09-05T18:06:03.966Z,55.26
2022-09-05T18:08:52.670Z,55.84
2022-09-05T18:11:44.948Z,62.41
2022-09-05T18:14:46.818Z,62.79
2022-09-05T18:18:05.620Z,63.56
2022-09-05T18:21:15.990Z,63.79
2022-09-05T18:24:15.320Z,64.79
2022-09-05T18:28:03.079Z,64.35
2022-09-05T18:33:54.480Z,66.83
2022-09-05T18:36:35.977Z,66.74
2022-09-05T18:39:43.249Z,66.81
2022-09-05T18:42:33.904Z,68.42
2022-09-05T18:45:28.428Z,70.37
2022-09-05T18:48:29.701Z,71.24
2022-09-05T18:51:22.072Z,68.57
2022-09-05T18:54:20.250Z,69.81
2022-09-05T18:57:28.425Z,70.02
2022-09-05T19:00:24.719Z,71.11
2022-09-05T19:03:27.956Z,70.52
2022-09-05T19:06:35.233Z,71.42
2022-09-05T19:09:28.583Z,75.45
2022-09-05T19:12:32.928Z,73.72
2022-09-05T19:15:24.870Z,73.49
2022-09-05T19:18:37.015Z,76.26
2022-09-05T19:21:23.792Z,74.61
2022-09-05T19:24:24.743Z,74.43
2022-09-05T19:28:17.283Z,73.34
2022-09-05T19:36:49.359Z,72.95
2022-09-05T19:37:05.765Z,74.13
2022-09-05T19:37:26.146Z,71.93
2022-09-05T19:45:39.394Z,70.35
2022-09-05T19:47:33.877Z,64.46
2022-09-05T19:47:35.036Z,67.65
2022-09-05T19:49:23.958Z,62.21
2022-09-05T19:52:16.907Z,59.01
2022-09-05T19:55:04.252Z,58.81
2022-09-05T19:58:05.239Z,57.41
2022-09-05T20:01:08.334Z,56.67
2022-09-05T20:03:56.360Z,55.56
2022-09-05T20:06:43.432Z,54.23
2022-09-05T20:09:30.208Z,53.74
2022-09-05T20:12:24.329Z,54.23
2022-09-05T20:15:22.991Z,54.61
2022-09-05T20:18:22.510Z,54.24
2022-09-05T20:21:17.876Z,53.80
2022-09-05T20:24:04.438Z,52.88
2022-09-05T20:26:51.444Z,52.99
2022-09-05T20:29:54.811Z,52.71
2022-09-05T20:32:46.156Z,52.43
2022-09-05T20:39:08.656Z,54.88
2022-09-05T20:43:14.801Z,55.07
2022-09-05T20:43:21.752Z,55.76
2022-09-05T20:45:02.241Z,56.57
2022-09-05T20:54:07.644Z,56.37
2022-09-05T20:54:28.653Z,53.88
2022-09-05T20:54:32.211Z,53.58
2022-09-05T20:57:16.779Z,51.94
2022-09-05T21:00:06.673Z,51.30
2022-09-05T21:02:56.111Z,52.32
2022-09-05T21:05:43.979Z,52.88
2022-09-05T21:08:34.768Z,53.87
2022-09-05T21:11:30.860Z,54.23
2022-09-05T21:14:20.672Z,53.85
2022-09-05T21:17:15.606Z,53.55
2022-09-05T21:20:08.769Z,53.72
2022-09-05T21:22:56.459Z,53.71
2022-09-05T21:25:53.819Z,53.54
2022-09-05T21:28:44.343Z,53.16
2022-09-05T21:31:33.827Z,52.76
2022-09-05T21:34:25.810Z,52.17
2022-09-05T21:37:13.329Z,51.81
2022-09-05T21:40:01.723Z,51.62
2022-09-05T21:44:37.862Z,51.30
2022-09-05T21:47:45.067Z,51.08
2022-09-05T21:49:03.934Z,50.69
2022-09-05T21:51:51.907Z,50.52
2022-09-05T21:59:17.124Z,50.39
2022-09-05T21:59:24.590Z,50.33
2022-09-05T22:00:57.000Z,50.48
2022-09-05T22:03:43.886Z,50.11
2022-09-05T22:06:33.245Z,50.18
2022-09-05T22:09:20.554Z,49.89
2022-09-05T22:12:29.894Z,50.23
2022-09-05T22:15:27.857Z,49.97
2022-09-05T22:18:18.165Z,49.83
2022-09-05T22:21:32.853Z,50.40
2022-09-05T22:24:14.761Z,50.16
2022-09-05T22:27:12.702Z,50.65
2022-09-05T22:30:00.025Z,50.51
2022-09-05T22:32:48.123Z,49.74
2022-09-05T22:35:35.333Z,50.43
2022-09-05T22:38:22.128Z,50.74
2022-09-05T22:41:08.990Z,50.71
2022-09-05T22:43:59.625Z,50.69
2022-09-05T22:46:46.360Z,50.78
2022-09-05T22:49:36.550Z,50.22
2022-09-05T22:52:23.284Z,50.52
2022-09-05T22:55:10.834Z,50.39
2022-09-05T22:57:57.352Z,50.99
2022-09-05T23:00:45.150Z,50.74
2022-09-05T23:03:31.975Z,50.54
2022-09-05T23:06:19.997Z,50.60
2022-09-05T23:09:06.843Z,50.98
2022-09-05T23:11:53.850Z,51.01
2022-09-05T23:14:40.454Z,51.06
2022-09-05T23:17:27.235Z,51.26
2022-09-05T23:20:14.524Z,51.58
2022-09-05T23:23:06.776Z,51.95
2022-09-05T23:25:53.420Z,51.96
2022-09-05T23:28:43.305Z,51.66
2022-09-05T23:31:30.132Z,51.46
2022-09-05T23:34:16.859Z,51.94
2022-09-05T23:37:04.026Z,51.94
2022-09-05T23:39:51.840Z,51.89
2022-09-05T23:42:39.654Z,52.08
2022-09-05T23:45:27.138Z,51.85
2022-09-05T23:48:13.756Z,52.24
2022-09-05T23:51:06.760Z,52.69
2022-09-05T23:53:53.584Z,52.79
2022-09-05T23:56:41.874Z,52.85
2022-09-05T23:59:29.060Z,53.13
